createdAt,value
2023-04-09T00:00:22.779Z,78.83
2023-04-09T00:02:49.245Z,78.52
2023-04-09T00:05:15.858Z,79.00
2023-04-09T00:07:44.360Z,78.73
2023-04-09T00:10:11.171Z,79.01
2023-04-09T00:12:37.630Z,78.70
2023-04-09T00:15:04.340Z,78.24
2023-04-09T00:17:30.797Z,79.03
2023-04-09T00:19:57.244Z,79.12
2023-04-09T00:22:23.720Z,78.93
2023-04-09T00:24:50.186Z,78.86
2023-04-09T00:27:16.749Z,78.69
2023-04-09T00:29:43.247Z,79.04
2023-04-09T00:32:09.738Z,79.20
2023-04-09T00:34:36.242Z,79.64
2023-04-09T00:37:02.677Z,79.26
2023-04-09T00:39:29.106Z,79.20
2023-04-09T00:41:57.023Z,78.67
2023-04-09T00:44:23.468Z,78.69
2023-04-09T00:46:49.933Z,78.82
2023-04-09T00:49:16.743Z,78.60
2023-04-09T00:51:45.044Z,78.54
2023-04-09T00:54:12.039Z,78.31
2023-04-09T00:56:38.587Z,78.46
2023-04-09T00:59:05.051Z,78.53
2023-04-09T01:03:57.975Z,78.07
2023-04-09T01:06:45.376Z,77.83
2023-04-09T01:09:20.581Z,78.00
2023-04-09T01:12:04.147Z,78.18
2023-04-09T01:14:38.922Z,78.77
2023-04-09T01:17:11.131Z,79.19
2023-04-09T01:19:54.015Z,79.20
2023-04-09T01:22:31.486Z,79.27
2023-04-09T01:25:42.651Z,79.53
2023-04-09T01:28:23.740Z,79.27
2023-04-09T01:30:56.940Z,78.82
2023-04-09T01:33:25.348Z,78.88
2023-04-09T01:35:53.631Z,79.22
2023-04-09T01:38:21.711Z,79.64
2023-04-09T01:40:50.230Z,79.75
2023-04-09T01:43:17.797Z,79.72
2023-04-09T01:45:45.188Z,79.42
2023-04-09T01:48:13.974Z,78.97
2023-04-09T01:50:40.679Z,78.93
2023-04-09T01:53:07.577Z,78.59
2023-04-09T01:55:34.027Z,78.54
2023-04-09T01:58:00.488Z,78.43
2023-04-09T02:00:35.102Z,79.29
2023-04-09T02:03:29.153Z,79.03
2023-04-09T02:06:12.358Z,78.69
2023-04-09T02:08:39.307Z,78.82
2023-04-09T02:11:09.893Z,78.63
2023-04-09T02:13:40.108Z,78.70
2023-04-09T02:16:07.584Z,78.85
2023-04-09T02:18:34.075Z,78.55
2023-04-09T02:21:00.922Z,78.62
2023-04-09T02:23:27.380Z,78.65
2023-04-09T02:25:54.100Z,78.21
2023-04-09T02:28:20.616Z,78.40
2023-04-09T02:30:47.103Z,78.58
2023-04-09T02:33:13.595Z,78.45
2023-04-09T02:35:40.122Z,78.40
2023-04-09T02:38:06.645Z,78.30
2023-04-09T02:40:33.065Z,78.60
2023-04-09T02:42:59.529Z,79.31
2023-04-09T02:45:25.979Z,79.66
2023-04-09T02:47:52.489Z,79.66
2023-04-09T02:50:19.192Z,79.80
2023-04-09T02:52:48.438Z,78.79
2023-04-09T02:55:15.435Z,78.60
2023-04-09T02:57:41.946Z,79.04
2023-04-09T03:00:09.482Z,78.65
2023-04-09T03:02:35.971Z,79.58
2023-04-09T03:05:02.930Z,79.50
2023-04-09T03:07:29.460Z,79.15
2023-04-09T03:09:55.904Z,79.37
2023-04-09T03:12:22.486Z,78.72
2023-04-09T03:14:48.934Z,78.83
2023-04-09T03:17:15.378Z,79.39
2023-04-09T03:19:41.867Z,78.60
2023-04-09T03:22:08.326Z,78.97
2023-04-09T03:24:34.808Z,78.85
2023-04-09T03:27:01.264Z,78.65
2023-04-09T03:29:27.701Z,78.87
2023-04-09T03:31:54.175Z,78.62
2023-04-09T03:34:20.658Z,79.15
2023-04-09T03:36:47.145Z,78.56
2023-04-09T03:39:13.585Z,79.33
2023-04-09T03:41:40.046Z,79.38
2023-04-09T03:44:06.523Z,79.42
2023-04-09T03:46:33.067Z,79.48
2023-04-09T03:48:59.620Z,78.88
2023-04-09T03:51:26.066Z,79.45
2023-04-09T03:53:52.744Z,79.14
2023-04-09T03:56:19.274Z,79.07
2023-04-09T03:58:45.691Z,79.20
2023-04-09T04:01:12.125Z,79.38
2023-04-09T04:03:38.766Z,79.44
2023-04-09T04:06:05.553Z,79.43
2023-04-09T04:08:31.998Z,79.28
2023-04-09T04:11:04.045Z,78.84
2023-04-09T04:13:30.561Z,79.02
2023-04-09T04:15:57.152Z,79.17
2023-04-09T04:18:23.626Z,79.42
2023-04-09T04:20:50.093Z,79.06
2023-04-09T04:23:16.528Z,79.17
2023-04-09T04:25:43.048Z,79.19
2023-04-09T04:28:09.486Z,78.96
2023-04-09T04:30:35.971Z,79.33
2023-04-09T04:33:02.517Z,78.62
2023-04-09T04:35:29.075Z,79.72
2023-04-09T04:37:55.550Z,78.67
2023-04-09T04:40:22.197Z,78.64
2023-04-09T04:42:48.625Z,79.26
2023-04-09T04:45:15.145Z,79.40
2023-04-09T04:47:41.662Z,79.37
2023-04-09T04:50:08.894Z,79.47
2023-04-09T04:52:36.366Z,78.96
2023-04-09T04:55:02.715Z,79.39
2023-04-09T04:57:29.192Z,79.74
2023-04-09T04:59:55.637Z,79.67
2023-04-09T05:02:22.274Z,79.43
2023-04-09T05:04:48.820Z,79.55
2023-04-09T05:07:16.011Z,79.52
2023-04-09T05:09:42.458Z,79.63
2023-04-09T05:12:08.902Z,79.45
2023-04-09T05:14:35.369Z,79.15
2023-04-09T05:17:01.924Z,80.44
2023-04-09T05:19:28.417Z,79.73
2023-04-09T05:21:54.871Z,80.21
2023-04-09T05:24:21.328Z,79.65
2023-04-09T05:26:47.857Z,80.28
2023-04-09T05:29:14.335Z,79.90
2023-04-09T05:31:40.778Z,80.17
2023-04-09T05:34:07.271Z,79.01
2023-04-09T05:36:33.777Z,79.57
2023-04-09T05:39:00.242Z,78.39
2023-04-09T05:41:26.681Z,78.39
2023-04-09T05:43:53.444Z,78.96
2023-04-09T05:46:20.128Z,77.51
2023-04-09T05:48:46.576Z,78.29
2023-04-09T05:51:13.012Z,77.08
2023-04-09T05:53:39.493Z,77.58
2023-04-09T05:56:16.004Z,78.50
2023-04-09T05:58:42.899Z,78.93
2023-04-09T06:01:09.458Z,77.33
2023-04-09T06:03:36.123Z,78.89
2023-04-09T06:06:02.684Z,77.80
2023-04-09T06:08:29.167Z,77.95
2023-04-09T06:10:55.604Z,77.82
2023-04-09T06:13:22.158Z,77.06
2023-04-09T06:15:48.660Z,76.70
2023-04-09T06:18:15.183Z,77.17
2023-04-09T06:20:41.677Z,77.29
2023-04-09T06:23:08.117Z,78.18
2023-04-09T06:25:35.886Z,78.11
2023-04-09T06:28:02.486Z,78.70
2023-04-09T06:30:29.563Z,78.34
2023-04-09T06:32:56.033Z,78.15
2023-04-09T06:35:23.038Z,78.84
2023-04-09T06:37:49.525Z,77.68
2023-04-09T06:40:16.075Z,77.60
2023-04-09T06:42:42.599Z,77.70
2023-04-09T06:45:09.541Z,77.98
2023-04-09T06:47:36.370Z,78.02
2023-04-09T06:50:03.389Z,78.16
2023-04-09T06:52:29.960Z,77.69
2023-04-09T06:54:56.395Z,76.35
2023-04-09T06:57:22.900Z,78.24
2023-04-09T06:59:49.392Z,78.25
2023-04-09T07:02:16.016Z,77.18
2023-04-09T07:04:42.670Z,76.06
2023-04-09T07:07:09.429Z,76.56
2023-04-09T07:09:35.934Z,76.82
2023-04-09T07:12:02.458Z,77.17
2023-04-09T07:14:29.017Z,75.77
2023-04-09T07:16:55.466Z,76.11
2023-04-09T07:19:21.971Z,76.31
2023-04-09T07:21:48.447Z,76.50
2023-04-09T07:24:14.905Z,76.73
2023-04-09T07:26:41.367Z,76.06
2023-04-09T07:29:07.820Z,76.50
2023-04-09T07:31:35.854Z,74.96
2023-04-09T07:34:02.609Z,75.55
2023-04-09T07:36:29.108Z,74.68
2023-04-09T07:38:55.607Z,74.86
2023-04-09T07:41:22.174Z,74.89
2023-04-09T07:43:48.648Z,74.92
2023-04-09T07:46:21.440Z,74.83
2023-04-09T07:48:48.484Z,74.17
2023-04-09T07:51:15.136Z,74.92
2023-04-09T07:53:41.590Z,74.12
2023-04-09T07:56:08.119Z,74.48
2023-04-09T07:58:34.574Z,74.65
2023-04-09T08:01:01.022Z,74.06
2023-04-09T08:03:27.724Z,73.65
2023-04-09T08:05:54.459Z,73.78
2023-04-09T08:08:20.904Z,73.29
2023-04-09T08:10:47.347Z,73.29
2023-04-09T08:13:13.820Z,73.15
2023-04-09T08:15:41.438Z,72.20
2023-04-09T08:18:07.935Z,73.48
2023-04-09T08:20:34.697Z,72.30
2023-04-09T08:23:01.176Z,72.79
2023-04-09T08:25:27.656Z,72.49
2023-04-09T08:27:54.058Z,72.28
2023-04-09T08:30:20.563Z,73.89
2023-04-09T08:32:47.067Z,74.11
2023-04-09T08:35:13.608Z,73.74
2023-04-09T08:37:40.056Z,74.64
2023-04-09T08:40:07.254Z,75.57
2023-04-09T08:42:34.544Z,77.09
2023-04-09T08:45:04.324Z,77.83
2023-04-09T08:47:32.404Z,78.69
2023-04-09T08:49:59.269Z,78.60
2023-04-09T08:52:32.730Z,78.27
2023-04-09T08:54:59.406Z,77.86
2023-04-09T08:57:26.648Z,77.87
2023-04-09T08:59:53.140Z,77.61
2023-04-09T09:02:19.651Z,76.61
2023-04-09T09:04:47.780Z,76.30
2023-04-09T09:07:15.794Z,76.67
2023-04-09T09:09:55.818Z,75.81
2023-04-09T09:12:38.426Z,76.09
2023-04-09T09:15:28.302Z,76.29
2023-04-09T09:17:56.965Z,75.69
2023-04-09T09:20:24.300Z,75.57
2023-04-09T09:22:55.722Z,76.13
2023-04-09T09:25:22.970Z,76.20
2023-04-09T09:27:49.453Z,76.65
2023-04-09T09:30:42.520Z,76.74
2023-04-09T09:33:10.565Z,75.82
2023-04-09T09:35:54.014Z,76.67
2023-04-09T09:38:20.869Z,77.33
2023-04-09T09:40:47.906Z,76.23
2023-04-09T09:43:14.700Z,76.57
2023-04-09T09:45:42.038Z,77.18
2023-04-09T09:48:11.373Z,77.27
2023-04-09T09:50:39.021Z,77.45
2023-04-09T09:53:06.797Z,76.97
2023-04-09T09:55:37.943Z,76.75
2023-04-09T09:58:12.543Z,75.95
2023-04-09T10:00:40.804Z,76.32
2023-04-09T10:03:22.832Z,76.44
2023-04-09T10:05:50.372Z,76.57
2023-04-09T10:08:17.972Z,76.38
2023-04-09T10:10:45.276Z,76.01
2023-04-09T10:13:15.188Z,76.09
2023-04-09T10:15:41.790Z,74.88
2023-04-09T10:18:08.594Z,74.98
2023-04-09T10:20:54.568Z,75.49
2023-04-09T10:23:44.328Z,74.44
2023-04-09T10:26:11.185Z,74.45
2023-04-09T10:28:38.027Z,74.26
2023-04-09T10:31:05.943Z,73.92
2023-04-09T10:33:32.481Z,72.73
2023-04-09T10:36:10.435Z,73.06
2023-04-09T10:38:41.788Z,73.62
2023-04-09T10:41:22.094Z,74.94
2023-04-09T10:43:48.653Z,74.73
2023-04-09T10:46:31.246Z,75.02
2023-04-09T10:49:10.826Z,73.66
2023-04-09T10:51:38.472Z,73.77
2023-04-09T10:54:06.207Z,73.50
2023-04-09T10:56:33.433Z,74.71
2023-04-09T10:58:59.883Z,75.01
2023-04-09T11:01:26.475Z,74.67
2023-04-09T11:04:14.808Z,74.20
2023-04-09T11:06:44.925Z,73.72
2023-04-09T11:09:11.380Z,73.62
2023-04-09T11:11:37.860Z,73.48
2023-04-09T11:14:04.482Z,73.97
2023-04-09T11:16:31.611Z,73.96
2023-04-09T11:18:58.221Z,73.92
2023-04-09T11:21:28.265Z,72.80
2023-04-09T11:23:54.766Z,72.99
2023-04-09T11:26:34.669Z,72.42
2023-04-09T11:29:05.686Z,72.93
2023-04-09T11:31:32.163Z,72.68
2023-04-09T11:33:58.635Z,73.19
2023-04-09T11:36:26.178Z,72.88
2023-04-09T11:38:52.840Z,74.02
2023-04-09T11:41:19.462Z,74.08
2023-04-09T11:43:45.929Z,73.69
2023-04-09T11:46:12.429Z,73.58
2023-04-09T11:48:39.154Z,74.42
2023-04-09T11:51:05.779Z,72.94
2023-04-09T11:53:32.216Z,71.90
2023-04-09T11:55:58.971Z,71.80
2023-04-09T11:58:26.323Z,71.82
2023-04-09T12:00:58.410Z,70.70
2023-04-09T12:03:31.837Z,70.76
2023-04-09T12:06:01.032Z,71.48
2023-04-09T12:08:27.669Z,71.65
2023-04-09T12:10:54.306Z,71.57
2023-04-09T12:13:21.426Z,71.51
2023-04-09T12:15:49.513Z,71.10
2023-04-09T12:18:16.112Z,72.21
2023-04-09T12:20:44.268Z,71.69
2023-04-09T12:23:12.202Z,71.71
2023-04-09T12:25:41.130Z,70.19
2023-04-09T12:28:11.608Z,69.67
2023-04-09T12:30:38.056Z,69.77
2023-04-09T12:33:04.752Z,69.12
2023-04-09T12:35:31.384Z,69.55
2023-04-09T12:37:57.861Z,69.48
2023-04-09T12:40:24.326Z,69.48
2023-04-09T12:42:51.067Z,68.90
2023-04-09T12:45:19.378Z,68.73
2023-04-09T12:47:46.017Z,67.99
2023-04-09T12:50:14.024Z,68.30
2023-04-09T12:52:40.746Z,68.89
2023-04-09T12:55:07.836Z,69.83
2023-04-09T12:57:34.790Z,69.08
2023-04-09T13:00:01.338Z,69.79
2023-04-09T13:02:27.949Z,69.80
2023-04-09T13:04:54.550Z,70.37
2023-04-09T13:07:21.147Z,69.25
2023-04-09T13:09:48.009Z,69.59
2023-04-09T13:12:14.530Z,68.96
2023-04-09T13:14:41.050Z,69.30
2023-04-09T13:17:07.603Z,70.03
2023-04-09T13:19:34.061Z,70.49
2023-04-09T13:22:00.531Z,69.36
2023-04-09T13:24:26.997Z,70.23
2023-04-09T13:26:53.458Z,69.88
2023-04-09T13:29:20.002Z,69.34
2023-04-09T13:31:46.489Z,70.44
2023-04-09T13:34:13.019Z,70.18
2023-04-09T13:36:39.472Z,70.80
2023-04-09T13:39:06.048Z,69.39
2023-04-09T13:41:33.438Z,69.78
2023-04-09T13:44:00.385Z,69.71
2023-04-09T13:46:27.018Z,69.97
2023-04-09T13:48:53.984Z,69.69
2023-04-09T13:51:24.272Z,69.48
2023-04-09T13:53:50.773Z,70.11
2023-04-09T13:56:17.204Z,70.05
2023-04-09T13:58:43.724Z,70.46
2023-04-09T14:01:11.688Z,71.07
2023-04-09T14:03:38.514Z,70.47
2023-04-09T14:06:05.268Z,70.43
2023-04-09T14:08:31.758Z,70.26
2023-04-09T14:10:58.268Z,70.23
2023-04-09T14:13:24.752Z,69.39
2023-04-09T14:15:51.285Z,69.31
2023-04-09T14:18:17.748Z,69.13
2023-04-09T14:20:44.208Z,69.33
2023-04-09T14:23:10.782Z,68.21
2023-04-09T14:25:37.306Z,68.41
2023-04-09T14:28:04.048Z,68.62
2023-04-09T14:30:30.506Z,67.78
2023-04-09T14:32:57.038Z,67.89
2023-04-09T14:35:23.707Z,67.53
2023-04-09T14:37:50.166Z,67.28
2023-04-09T14:40:16.710Z,66.82
2023-04-09T14:42:43.135Z,67.33
2023-04-09T14:45:10.143Z,67.19
2023-04-09T14:47:36.652Z,66.96
2023-04-09T14:50:03.260Z,66.51
2023-04-09T14:52:29.754Z,66.43
2023-04-09T14:54:56.752Z,66.35
2023-04-09T14:57:23.366Z,66.00
2023-04-09T14:59:49.894Z,64.73
2023-04-09T15:02:17.111Z,64.42
2023-04-09T15:04:43.546Z,66.44
2023-04-09T15:07:10.016Z,65.84
2023-04-09T15:09:36.339Z,66.60
2023-04-09T15:12:02.806Z,65.76
2023-04-09T15:14:31.135Z,66.31
2023-04-09T15:16:57.619Z,64.94
2023-04-09T15:19:24.089Z,65.40
2023-04-09T15:21:50.616Z,65.43
2023-04-09T15:24:17.089Z,65.96
2023-04-09T15:26:43.532Z,65.81
2023-04-09T15:29:10.227Z,66.65
2023-04-09T15:31:37.570Z,66.09
2023-04-09T15:34:04.904Z,65.29
2023-04-09T15:36:31.390Z,64.48
2023-04-09T15:38:58.071Z,66.14
2023-04-09T15:41:24.546Z,65.81
2023-04-09T15:43:51.173Z,65.50
2023-04-09T15:46:17.941Z,64.90
2023-04-09T15:48:44.737Z,65.00
2023-04-09T15:51:11.272Z,64.77
2023-04-09T15:53:37.755Z,64.64
2023-04-09T15:56:04.529Z,64.57
2023-04-09T15:58:31.386Z,64.77
2023-04-09T16:00:57.966Z,65.06
2023-04-09T16:03:24.507Z,64.95
2023-04-09T16:05:50.972Z,64.82
2023-04-09T16:08:17.417Z,65.20
2023-04-09T16:10:43.864Z,64.85
2023-04-09T16:13:10.371Z,65.03
2023-04-09T16:15:36.864Z,66.30
2023-04-09T16:18:03.375Z,65.03
2023-04-09T16:20:29.869Z,66.30
2023-04-09T16:22:56.313Z,65.95
2023-04-09T16:25:22.829Z,65.18
2023-04-09T16:27:49.318Z,66.40
2023-04-09T16:30:15.764Z,66.00
2023-04-09T16:32:42.306Z,66.14
2023-04-09T16:35:08.856Z,65.62
2023-04-09T16:37:35.296Z,65.84
2023-04-09T16:40:01.833Z,66.51
2023-04-09T16:42:28.389Z,66.03
2023-04-09T16:44:54.832Z,67.75
2023-04-09T16:47:21.318Z,68.16
2023-04-09T16:49:47.830Z,67.86
2023-04-09T16:52:14.334Z,67.97
2023-04-09T16:54:40.832Z,68.28
2023-04-09T16:57:07.303Z,68.38
2023-04-09T16:59:33.777Z,68.30
2023-04-09T17:02:00.327Z,67.67
2023-04-09T17:04:27.017Z,68.92
2023-04-09T17:06:53.621Z,68.47
2023-04-09T17:09:20.048Z,69.23
2023-04-09T17:11:46.541Z,69.45
2023-04-09T17:14:13.017Z,69.43
2023-04-09T17:16:39.467Z,69.52
2023-04-09T17:19:05.987Z,70.07
2023-04-09T17:21:32.409Z,70.69
2023-04-09T17:23:58.858Z,71.16
2023-04-09T17:26:25.381Z,71.35
2023-04-09T17:28:52.039Z,71.82
2023-04-09T17:31:18.842Z,73.06
2023-04-09T17:33:45.423Z,72.93
2023-04-09T17:36:11.870Z,73.36
2023-04-09T17:38:38.376Z,73.20
2023-04-09T17:41:07.380Z,73.10
2023-04-09T17:43:34.115Z,73.16
2023-04-09T17:46:00.631Z,73.08
2023-04-09T17:48:27.157Z,74.46
2023-04-09T17:50:53.703Z,74.78
2023-04-09T17:53:21.106Z,75.38
2023-04-09T17:55:48.882Z,76.04
2023-04-09T17:58:15.449Z,77.17
2023-04-09T18:00:42.182Z,76.59
2023-04-09T18:03:09.596Z,76.26
2023-04-09T18:05:36.451Z,77.23
2023-04-09T18:08:03.053Z,77.44
2023-04-09T18:10:29.701Z,77.58
2023-04-09T18:12:56.172Z,77.69
2023-04-09T18:15:22.708Z,77.58
2023-04-09T18:17:49.274Z,78.32
2023-04-09T18:20:15.814Z,78.16
2023-04-09T18:22:43.439Z,79.17
2023-04-09T18:25:10.240Z,79.18
2023-04-09T18:27:36.750Z,78.75
2023-04-09T18:30:03.425Z,78.43
2023-04-09T18:32:30.067Z,79.90
2023-04-09T18:34:56.505Z,80.38
2023-04-09T18:37:22.958Z,80.23
2023-04-09T18:39:49.405Z,80.94
2023-04-09T18:42:15.855Z,80.58
2023-04-09T18:44:42.305Z,80.64
2023-04-09T18:47:09.040Z,80.55
2023-04-09T18:49:36.208Z,79.88
2023-04-09T18:52:03.423Z,79.83
2023-04-09T18:54:29.965Z,80.08
2023-04-09T18:56:56.448Z,79.80
2023-04-09T18:59:22.920Z,80.11
2023-04-09T19:01:49.461Z,80.13
2023-04-09T19:04:16.050Z,80.52
2023-04-09T19:06:43.497Z,80.44
2023-04-09T19:09:10.000Z,79.81
2023-04-09T19:11:36.449Z,79.94
2023-04-09T19:14:03.001Z,80.21
2023-04-09T19:16:29.681Z,79.92
2023-04-09T19:18:56.216Z,80.33
2023-04-09T19:21:22.739Z,80.24
2023-04-09T19:23:49.255Z,81.05
2023-04-09T19:26:15.722Z,80.83
2023-04-09T19:28:42.178Z,81.26
2023-04-09T19:31:08.732Z,80.67
2023-04-09T19:33:35.265Z,81.03
2023-04-09T19:36:01.792Z,80.99
2023-04-09T19:38:28.262Z,80.74
2023-04-09T19:40:54.752Z,81.17
2023-04-09T19:43:21.212Z,81.02
2023-04-09T19:45:47.658Z,80.14
2023-04-09T19:48:14.154Z,80.37
2023-04-09T19:50:40.647Z,81.19
2023-04-09T19:53:07.301Z,80.91
2023-04-09T19:55:34.151Z,80.94
2023-04-09T19:58:00.986Z,81.65
2023-04-09T20:00:28.093Z,80.98
2023-04-09T20:02:55.508Z,81.23
2023-04-09T20:05:22.407Z,80.82
2023-04-09T20:07:49.589Z,80.82
2023-04-09T20:10:16.254Z,82.17
2023-04-09T20:12:47.182Z,81.83
2023-04-09T20:15:13.656Z,82.13
2023-04-09T20:17:40.140Z,82.22
2023-04-09T20:20:07.155Z,82.33
2023-04-09T20:22:33.830Z,81.44
2023-04-09T20:25:00.269Z,81.44
2023-04-09T20:27:26.784Z,81.86
2023-04-09T20:29:53.233Z,81.79
2023-04-09T20:32:20.145Z,82.83
2023-04-09T20:34:46.709Z,82.00
2023-04-09T20:37:13.173Z,82.25
2023-04-09T20:39:39.651Z,82.26
2023-04-09T20:42:06.094Z,82.04
2023-04-09T20:44:32.550Z,83.62
2023-04-09T20:46:58.960Z,84.67
2023-04-09T20:49:25.463Z,85.59
2023-04-09T20:51:51.966Z,86.23
2023-04-09T20:54:18.425Z,86.86
2023-04-09T20:56:44.907Z,86.29
2023-04-09T20:59:11.379Z,87.12
2023-04-09T21:01:37.947Z,86.49
2023-04-09T21:04:04.674Z,87.53
2023-04-09T21:06:31.243Z,86.33
2023-04-09T21:08:58.658Z,85.32
2023-04-09T21:11:26.382Z,85.15
2023-04-09T21:13:55.109Z,83.87
2023-04-09T21:16:22.072Z,84.42
2023-04-09T21:18:48.624Z,84.24
2023-04-09T21:21:15.125Z,84.76
2023-04-09T21:23:41.631Z,84.96
2023-04-09T21:26:08.107Z,84.80
2023-04-09T21:28:34.552Z,85.17
2023-04-09T21:31:01.003Z,85.49
2023-04-09T21:33:29.343Z,85.88
2023-04-09T21:35:56.712Z,85.40
2023-04-09T21:38:23.303Z,85.17
2023-04-09T21:40:49.777Z,85.57
2023-04-09T21:43:16.203Z,86.28
2023-04-09T21:45:42.667Z,86.53
2023-04-09T21:48:09.091Z,85.81
2023-04-09T21:50:35.600Z,86.10
2023-04-09T21:53:02.136Z,86.25
2023-04-09T21:55:28.668Z,87.50
2023-04-09T21:57:55.136Z,87.75
2023-04-09T22:00:21.605Z,88.17
2023-04-09T22:02:48.265Z,87.92
2023-04-09T22:05:14.822Z,88.13
2023-04-09T22:07:41.952Z,87.41
2023-04-09T22:10:09.068Z,87.35
2023-04-09T22:12:35.610Z,87.25
2023-04-09T22:15:03.698Z,86.89
2023-04-09T22:17:30.238Z,87.03
2023-04-09T22:19:56.803Z,87.33
2023-04-09T22:22:23.266Z,86.76
2023-04-09T22:24:49.719Z,87.45
2023-04-09T22:27:16.219Z,86.26
2023-04-09T22:29:42.708Z,86.20
2023-04-09T22:32:09.403Z,86.87
2023-04-09T22:34:35.871Z,86.18
2023-04-09T22:37:02.323Z,86.52
2023-04-09T22:39:28.778Z,86.99
2023-04-09T22:41:55.283Z,88.37
2023-04-09T22:44:21.772Z,87.87
2023-04-09T22:46:48.270Z,88.32
2023-04-09T22:49:14.815Z,89.34
2023-04-09T22:51:41.872Z,88.66
2023-04-09T22:54:09.076Z,88.25
2023-04-09T22:56:35.662Z,88.60
2023-04-09T22:59:02.397Z,88.87
2023-04-09T23:01:29.252Z,88.18
2023-04-09T23:03:55.821Z,87.31
2023-04-09T23:06:22.308Z,86.75
2023-04-09T23:08:48.801Z,87.16
2023-04-09T23:11:15.295Z,87.51
2023-04-09T23:13:41.978Z,87.20
2023-04-09T23:16:10.032Z,86.78
2023-04-09T23:18:36.928Z,86.66
2023-04-09T23:21:07.433Z,86.23
2023-04-09T23:23:34.854Z,86.76
2023-04-09T23:26:01.540Z,86.40
2023-04-09T23:28:28.304Z,86.00
2023-04-09T23:30:55.550Z,87.10
2023-04-09T23:33:22.580Z,86.25
2023-04-09T23:35:49.076Z,87.67
2023-04-09T23:38:15.600Z,87.06
2023-04-09T23:40:42.939Z,87.83
2023-04-09T23:43:09.621Z,86.98
2023-04-09T23:45:36.062Z,86.95
2023-04-09T23:48:03.756Z,87.34
2023-04-09T23:50:30.251Z,86.93
2023-04-09T23:52:56.817Z,87.12
2023-04-09T23:55:23.310Z,87.42
2023-04-09T23:57:49.775Z,87.30
